Terminal Aerodrome Forecast
Issued by NWS Detroit/Pontiac, MI

Home | Current Version | Previous Version | Text Only | Print | Product List | Glossary On
Versions: 1 2 3 4 5 6 7 8 9 10 11 12 13 14 15 16 17 18 19 20 21 22 23 24 25 26
000
FTUS43 KDTX 300250 AAB
TAFDTW
TAF AMD
KDTW 300250Z 3003/3106 VRB03KT 5SM -SHRA BR OVC050
     FM300800 15003KT 5SM BR OVC025
     FM301200 16005KT 4SM BR BKN007 BKN015 OVC025
     FM301600 23006KT P6SM BKN020
     FM301800 25007KT P6SM BKN035=

USA.gov is the U.S. government's official web portal to all federal, state and local government web resources and services.